Latest Coastal Weather Observations for Neptune Island

IDT60701

Issued at 3:51 am EST Tuesday 26 May 2015 (issued every 10 minutes, with the page automatically refreshed every 10 minutes)

About coastal observations | Map of coastal stations | Coastal observations for TAS | Marine services | Other Formats
Station Details ID: 018115 Name: NEPTUNE ISLAND Lat: -35.34 Lon: 136.12 Height: 32.0 m
Data from the previous 72 hours. | See also: Recent months at Neptune Island
Date/Time
EST
Temp

°C
Wind Pressure Rain
since 9am
mm
Weather Cloud Vis
km
Sea
Height
m
Swell
Dir
 
Speed
knots
Gust
knots
hPa Trend Height
m
Period
s
Dir
26/03:30am 15.8 NNE 14 15 1024.2 - 0.0 - - - - - - -
26/03:00am 15.7 NNE 14 16 1024.3 - 0.0 - - - - - - -
26/02:30am 15.8 NNE 14 16 1024.5 - 0.0 - - - - - - -
26/02:00am 15.8 NE 14 17 1024.6 - 0.0 - - - - - - -
26/01:30am 15.8 NE 12 15 1024.8 - 0.0 - - - - - - -
26/01:00am 15.7 NE 9 14 1025.0 - 0.0 - - - - - - -
26/12:30am 15.7 NE 10 12 1025.1 - 0.0 - - - - - - -
26/12:00am 15.8 NE 11 13 1025.4 - 0.0 - - - - - - -
 
Date/Time
EST
Temp

°C
Wind Pressure Rain
since 9am
mm
Weather Cloud Vis
km
Sea
Height
m
Swell
Dir
 
Speed
knots
Gust
knots
hPa Trend Height
m
Period
s
Dir
25/11:30pm 16.0 ENE 11 13 1025.5 - 0.0 - - - - - - -
25/11:00pm 15.9 ENE 12 14 1025.7 - 0.0 - - - - - - -
25/10:30pm 15.9 ENE 13 14 1025.8 - 0.0 - - - - - - -
25/10:00pm 16.0 ENE 12 14 1026.1 - 0.0 - - - - - - -
25/09:30pm 16.0 ENE 12 13 1026.2 - 0.0 - - - - - - -
25/09:00pm 16.1 ENE 12 14 1026.1 - 0.0 - - - - - - -
25/08:30pm 16.1 ENE 12 14 1026.3 - 0.0 - - - - - - -
25/08:00pm 16.1 ENE 13 15 1026.0 - 0.0 - - - - - - -
25/07:30pm 16.2 ENE 12 14 1025.6 - 0.0 - - - - - - -
25/07:00pm 16.1 ENE 12 14 1025.5 - 0.0 - - - - - - -
25/06:30pm 16.1 ENE 11 12 1025.6 - 0.0 - - - - - - -
25/06:00pm 16.0 E 11 13 1025.0 - 0.0 - - - - - - -
25/05:30pm 16.2 E 11 12 1025.2 - 0.0 - - - - - - -
25/05:00pm 16.6 E 9 10 1025.3 - 0.0 - - - - - - -
25/04:30pm 16.7 E 9 11 1025.1 - 0.0 - - - - - - -
25/04:00pm 17.0 E 9 10 1024.8 - 0.0 - - - - - - -
25/03:30pm 16.9 ENE 7 9 1024.9 - 0.0 - - - - - - -
25/03:00pm 17.9 NE 5 8 1024.9 - 0.0 - - - - - - -
25/02:30pm 17.3 NNE 7 8 1025.1 - 0.0 - - - - - - -
25/02:00pm 17.4 NNE 8 10 1025.2 - 0.0 - - - - - - -
25/01:30pm 18.1 NE 10 11 1025.5 - 0.0 - - - - - - -
25/01:00pm 17.8 NE 9 12 1025.8 - 0.0 - - - - - - -
25/12:30pm 18.1 NE 9 12 1026.2 - 0.0 - - - - - - -
25/12:00pm 17.9 ENE 11 13 1026.8 - 0.0 - - - - - - -
25/11:30am 17.4 ENE 11 14 1027.1 - 0.0 - - - - - - -
25/11:00am 17.8 NE 10 14 1027.4 - 0.0 - - - - - - -
25/10:30am 17.3 NE 8 11 1027.6 - 0.0 - - - - - - -
25/10:00am 17.2 NE 7 9 1027.6 - 0.0 - - - - - - -
25/09:30am 16.7 NE 8 10 1027.7 - 0.0 - - - - - - -
25/09:00am 15.9 NE 7 10 1027.6 - 0.0 - - - - - - -
25/08:30am 15.7 NE 8 10 1027.6 - 0.0 - - - - - - -
25/08:00am 15.4 NE 9 11 1027.3 - 0.0 - - - - - - -
25/07:30am 15.4 NE 9 13 1027.1 - 0.0 - - - - - - -
25/07:00am 15.6 NE 9 13 1027.0 - 0.0 - - - - - - -
25/06:30am 15.6 NE 11 13 1026.7 - 0.0 - - - - - - -
25/06:00am 15.6 NNE 10 13 1026.7 - 0.0 - - - - - - -
25/05:30am 15.4 NE 10 11 1026.5 - 0.0 - - - - - - -
25/05:00am 15.3 NNE 11 12 1026.5 - 0.0 - - - - - - -
25/04:30am 15.1 NNE 12 14 1026.5 - 0.0 - - - - - - -
25/04:00am 15.3 NNE 13 15 1026.5 - 0.0 - - - - - - -
25/03:30am 15.5 NNE 13 15 1026.7 - 0.0 - - - - - - -
25/03:00am 15.6 NE 11 14 1026.7 - 0.0 - - - - - - -
25/02:30am 15.6 NE 10 12 1026.8 - 0.0 - - - - - - -
25/02:00am 15.7 NE 9 12 1026.9 - 0.0 - - - - - - -
25/01:30am 15.4 NE 8 10 1027.0 - 0.0 - - - - - - -
25/01:00am 15.0 NNE 7 8 1027.1 - 0.0 - - - - - - -
25/12:30am 14.9 NNE 6 7 1027.2 - 0.0 - - - - - - -
25/12:00am 15.1 NNE 7 8 1027.2 - 0.0 - - - - - - -
 
Date/Time
EST
Temp

°C
Wind Pressure Rain
since 9am
mm
Weather Cloud Vis
km
Sea
Height
m
Swell
Dir
 
Speed
knots
Gust
knots
hPa Trend Height
m
Period
s
Dir
24/11:30pm 15.0 NNE 7 8 1027.2 - 0.0 - - - - - - -
24/11:00pm 15.0 NNE 9 9 1027.1 - 0.0 - - - - - - -
24/10:30pm 14.5 N 7 11 1027.2 - 0.0 - - - - - - -
24/10:00pm 15.2 NW 10 12 1027.4 - 0.0 - - - - - - -
24/09:30pm 15.3 NNW 10 13 1027.2 - 0.0 - - - - - - -
24/09:00pm 15.2 N 5 7 1026.8 - 0.0 - - - - - - -
24/08:30pm 15.4 N 11 13 1026.8 - 0.0 - - - - - - -
24/08:00pm 15.2 NNW 6 7 1026.5 - 0.0 - - - - - - -
24/07:30pm 15.4 NNW 4 6 1025.8 - 0.0 - - - - - - -
24/07:00pm 15.4 N 10 12 1026.6 - 0.0 - - - - - - -
24/06:30pm 15.6 N 11 13 1026.4 - 0.0 - - - - - - -
24/06:00pm 15.5 N 11 13 1026.2 - 0.0 - - - - - - -
24/05:30pm 15.7 N 12 15 1026.2 - 0.0 - - - - - - -
24/05:00pm 15.9 N 12 14 1026.0 - 0.0 - - - - - - -
24/04:30pm 16.0 N 12 13 1025.7 - 0.0 - - - - - - -
24/04:00pm 16.1 N 10 12 1025.6 - 0.0 - - - - - - -
24/03:30pm 16.0 N 11 12 1025.4 - 0.0 - - - - - - -
24/03:00pm 16.1 N 12 13 1025.3 - 0.0 - - - - - - -
24/02:30pm 15.9 N 11 13 1025.5 - 0.0 - - - - - - -
24/02:00pm 15.8 N 12 14 1025.7 - 0.0 - - - - - - -
24/01:30pm 15.9 N 12 15 1026.1 - 0.0 - - - - - - -
24/01:00pm 15.8 N 14 16 1026.4 - 0.0 - - - - - - -
24/12:30pm 15.5 N 15 17 1026.6 - 0.0 - - - - - - -
24/12:00pm 15.8 N 17 20 1026.8 - 0.0 - - - - - - -
24/11:30am 15.8 N 18 21 1026.9 - 0.0 - - - - - - -
24/11:00am 15.9 N 17 19 1026.7 - 0.0 - - - - - - -
24/10:30am 15.7 N 17 19 1026.6 - 0.0 - - - - - - -
24/10:00am 15.5 NNE 18 19 1026.6 - 0.0 - - - - - - -
24/09:30am 15.4 NNE 17 19 1026.3 - 0.0 - - - - - - -
24/09:00am 15.3 NNE 17 19 1026.2 - 0.0 - - - - - - -
24/08:30am 15.3 NNE 17 19 1026.1 - 0.0 - - - - - - -
24/08:00am 15.3 NNE 17 19 1026.1 - 0.0 - - - - - - -
24/07:30am 15.2 NNE 16 18 1026.0 - 0.0 - - - - - - -
24/07:00am 15.2 N 16 18 1025.8 - 0.0 - - - - - - -
24/06:30am 15.2 N 18 21 1025.5 - 0.0 - - - - - - -
24/06:00am 15.2 NNE 18 20 1025.4 - 0.0 - - - - - - -
24/05:30am 15.2 NNE 18 21 1025.2 - 0.0 - - - - - - -
24/05:00am 15.1 NNE 17 19 1025.2 - 0.0 - - - - - - -
24/04:30am 15.0 NNE 17 19 1025.0 - 0.0 - - - - - - -
24/04:00am 14.9 NNE 17 19 1025.0 - 0.0 - - - - - - -
24/03:30am 14.9 NNE 17 20 1025.2 - 0.0 - - - - - - -
24/03:00am 14.7 NNE 16 18 1025.4 - 0.0 - - - - - - -
24/02:30am 14.9 NE 13 17 1025.7 - 0.0 - - - - - - -
24/02:00am 14.8 NE 13 17 1025.8 - 0.0 - - - - - - -
24/01:30am 14.5 NE 12 16 1026.0 - 0.0 - - - - - - -
24/01:00am 14.4 NE 11 16 1026.4 - 0.0 - - - - - - -
24/12:30am 14.3 NE 13 17 1026.6 - 0.0 - - - - - - -
24/12:00am 14.4 NE 11 15 1026.7 - 0.0 - - - - - - -
 
Date/Time
EST
Temp

°C
Wind Pressure Rain
since 9am
mm
Weather Cloud Vis
km
Sea
Height
m
Swell
Dir
 
Speed
knots
Gust
knots
hPa Trend Height
m
Period
s
Dir
23/11:30pm 14.4 ENE 13 16 1026.8 - 0.0 - - - - - - -
23/11:00pm 14.3 ENE 15 17 1027.1 - 0.0 - - - - - - -
23/10:30pm 14.5 ENE 14 16 1027.3 - 0.0 - - - - - - -
23/10:00pm 14.6 ENE 11 14 1027.5 - 0.0 - - - - - - -
23/09:30pm 14.3 ENE 9 11 1027.5 - 0.0 - - - - - - -
23/09:00pm 14.1 ENE 9 11 1027.7 - 0.0 - - - - - - -
23/08:30pm 14.1 ENE 10 13 1027.6 - 0.0 - - - - - - -
23/08:00pm 14.0 ENE 10 12 1027.6 - 0.0 - - - - - - -
23/07:30pm 13.9 ENE 9 11 1027.7 - 0.0 - - - - - - -
23/07:00pm 13.7 NE 8 11 1027.8 - 0.0 - - - - - - -
23/06:30pm 13.8 ENE 11 13 1027.3 - 0.0 - - - - - - -
23/06:00pm 13.9 ENE 11 14 1027.1 - 0.0 - - - - - - -
23/05:30pm 13.9 ENE 10 13 1027.2 - 0.0 - - - - - - -
23/05:00pm 13.9 ENE 10 13 1027.5 - 0.0 - - - - - - -
23/04:30pm 13.9 ENE 11 15 1027.5 - 0.0 - - - - - - -
23/04:00pm 13.8 ENE 10 13 1027.9 - 0.0 - - - - - - -
23/03:30pm 13.8 ENE 11 14 1027.9 - 0.0 - - - - - - -
23/03:00pm 14.0 NE 7 10 1028.3 - 0.0 - - - - - - -
23/02:30pm 13.7 ENE 10 13 1028.5 - 0.0 - - - - - - -
23/02:00pm 14.0 ENE 12 15 1028.6 - 0.0 - - - - - - -
23/01:30pm 14.2 NE 13 17 1028.7 - 0.0 - - - - - - -
23/01:00pm 14.3 NE 12 17 1029.0 - 0.0 - - - - - - -
23/12:30pm 14.0 NE 12 17 1029.5 - 0.0 - - - - - - -
23/12:00pm 14.4 ENE 11 14 1029.9 - 0.0 - - - - - - -
23/11:30am 15.1 NE 10 15 1030.2 - 0.0 - - - - - - -
23/11:00am 15.0 NE 8 12 1030.3 - 0.0 - - - - - - -
23/10:30am 14.0 ENE 10 12 1030.5 - 0.0 - - - - - - -
23/10:00am 14.1 ENE 10 13 1030.7 - 0.0 - - - - - - -
23/09:30am 13.6 ENE 11 14 1030.8 - 0.0 - - - - - - -
23/09:00am 13.5 NE 10 13 1030.8 - 0.0 - - - - - - -
23/08:30am 12.8 ENE 10 13 1030.7 - 0.0 - - - - - - -
23/08:00am 12.7 NE 8 11 1030.7 - 0.0 - - - - - - -
23/07:30am 12.8 NE 8 10 1030.6 - 0.0 - - - - - - -
23/07:00am 12.9 NE 8 10 1030.4 - 0.0 - - - - - - -
23/06:30am 12.9 NE 9 13 1030.1 - 0.0 - - - - - - -
23/06:00am 13.0 ENE 12 15 1030.0 - 0.0 - - - - - - -
23/05:30am 12.9 ENE 13 16 1029.7 - 0.0 - - - - - - -
23/05:00am 13.0 ENE 13 18 1029.6 - 0.0 - - - - - - -
23/04:30am 13.2 NE 14 19 1029.9 - 0.0 - - - - - - -

Other Formats:

Comma delimited format used in spreadsheet applications
http://www.bom.gov.au/fwo/IDT60701/IDT60701.94804.axf

JavaScript Object Notation format (JSON) in row-major order
http://www.bom.gov.au/fwo/IDT60701/IDT60701.94804.json